createdAt,value
2018-09-22T00:00:07.253Z,20.60
2018-09-22T00:01:07.235Z,22.90
2018-09-22T00:02:07.211Z,25.20
2018-09-22T00:03:07.184Z,23.60
2018-09-22T00:04:07.158Z,22.20
2018-09-22T00:05:07.156Z,22.60
2018-09-22T00:06:07.113Z,27.50
2018-09-22T00:07:07.110Z,23.60
2018-09-22T00:08:07.083Z,22.40
2018-09-22T00:09:07.068Z,23.80
2018-09-22T00:10:07.034Z,23.90
2018-09-22T00:11:07.008Z,23.70
2018-09-22T00:12:06.991Z,26.10
2018-09-22T00:13:06.971Z,26.90
2018-09-22T00:14:06.958Z,22.80
2018-09-22T00:15:06.927Z,22.00
2018-09-22T00:16:06.905Z,25.10
2018-09-22T00:17:06.891Z,22.70
2018-09-22T00:18:06.873Z,24.50
2018-09-22T00:19:06.846Z,26.50
2018-09-22T00:20:06.827Z,23.60
2018-09-22T00:21:06.794Z,25.30
2018-09-22T00:22:06.780Z,23.80
2018-09-22T00:23:06.755Z,27.80
2018-09-22T00:24:06.735Z,31.60
2018-09-22T00:25:06.725Z,28.50
2018-09-22T00:26:06.705Z,34.70
2018-09-22T00:27:06.710Z,32.40
2018-09-22T00:28:06.653Z,27.60
2018-09-22T00:29:06.627Z,29.10
2018-09-22T00:30:06.604Z,32.30
2018-09-22T00:31:06.604Z,30.80
2018-09-22T00:32:06.559Z,42.60
2018-09-22T00:33:06.551Z,36.30
2018-09-22T00:34:06.519Z,34.80
2018-09-22T00:35:06.510Z,43.00
2018-09-22T00:36:06.475Z,46.20
2018-09-22T00:37:06.454Z,47.50
2018-09-22T00:38:06.433Z,45.90
2018-09-22T00:39:06.421Z,43.80
2018-09-22T00:40:06.389Z,49.30
2018-09-22T00:41:06.385Z,46.60
2018-09-22T00:42:06.365Z,54.70
2018-09-22T00:43:06.343Z,53.80
2018-09-22T00:44:06.304Z,55.00
2018-09-22T00:45:06.297Z,47.20
2018-09-22T00:46:06.258Z,51.00
2018-09-22T00:47:06.251Z,53.70
2018-09-22T00:48:06.228Z,51.80
2018-09-22T00:49:06.197Z,51.30
2018-09-22T00:50:06.185Z,55.50
2018-09-22T00:51:06.167Z,57.40
2018-09-22T00:52:06.129Z,50.80
2018-09-22T00:53:06.119Z,53.20
2018-09-22T00:54:06.107Z,54.30
2018-09-22T00:55:06.080Z,55.20
2018-09-22T00:56:06.049Z,50.20
2018-09-22T00:57:06.028Z,55.80
2018-09-22T00:58:06.018Z,48.60
2018-09-22T00:59:05.994Z,52.80
2018-09-22T01:00:05.959Z,45.00
2018-09-22T01:01:05.939Z,53.00
2018-09-22T01:02:05.928Z,46.00
2018-09-22T01:03:05.894Z,53.60
2018-09-22T01:04:05.887Z,52.60
2018-09-22T01:05:05.867Z,50.20
2018-09-22T01:06:05.842Z,49.70
2018-09-22T01:07:05.813Z,51.40
2018-09-22T01:08:05.802Z,50.00
2018-09-22T01:09:05.771Z,54.90
2018-09-22T01:10:05.744Z,55.00
2018-09-22T01:11:05.735Z,52.30
2018-09-22T01:12:05.712Z,55.10
2018-09-22T01:13:05.694Z,51.10
2018-09-22T01:14:05.662Z,53.90
2018-09-22T01:15:05.652Z,54.20
2018-09-22T01:16:05.626Z,49.70
2018-09-22T01:17:05.598Z,51.80
2018-09-22T01:18:05.590Z,49.30
2018-09-22T01:19:05.662Z,50.20
2018-09-22T01:20:05.546Z,57.70
2018-09-22T01:21:05.508Z,55.50
2018-09-22T01:22:05.496Z,57.70
2018-09-22T01:23:05.482Z,53.70
2018-09-22T01:24:05.461Z,56.90
2018-09-22T01:25:05.438Z,57.30
2018-09-22T01:26:05.400Z,52.50
2018-09-22T01:27:05.392Z,48.30
2018-09-22T01:28:05.363Z,61.50
2018-09-22T01:29:05.335Z,60.60
2018-09-22T01:30:05.329Z,61.60
2018-09-22T01:31:05.310Z,62.40
2018-09-22T01:32:05.278Z,61.10
2018-09-22T01:33:05.259Z,57.10
2018-09-22T01:34:05.241Z,60.20
2018-09-22T01:35:05.207Z,61.10
2018-09-22T01:36:05.195Z,63.80
2018-09-22T01:37:05.183Z,66.60
2018-09-22T01:38:05.142Z,68.40
2018-09-22T01:39:05.123Z,62.60
2018-09-22T01:40:05.098Z,68.50
2018-09-22T01:41:05.090Z,71.30
2018-09-22T01:42:05.057Z,72.80
2018-09-22T01:43:05.040Z,68.50
2018-09-22T01:44:05.019Z,75.90
2018-09-22T01:45:04.988Z,73.20
2018-09-22T01:46:04.980Z,69.10
2018-09-22T01:47:04.943Z,75.60
2018-09-22T01:48:04.933Z,69.30
2018-09-22T01:49:04.916Z,81.20
2018-09-22T01:50:04.901Z,72.50
2018-09-22T01:51:04.870Z,70.00
2018-09-22T01:52:04.852Z,75.70
2018-09-22T01:53:04.826Z,68.10
2018-09-22T01:54:04.804Z,68.20
2018-09-22T01:55:04.776Z,66.40
2018-09-22T01:56:04.751Z,62.60
2018-09-22T01:57:04.733Z,65.20
2018-09-22T01:58:04.715Z,62.50
2018-09-22T01:59:04.689Z,61.60
2018-09-22T02:00:04.665Z,63.40
2018-09-22T02:01:04.659Z,65.40
2018-09-22T02:02:04.636Z,63.70
2018-09-22T02:03:04.615Z,69.70
2018-09-22T02:04:04.587Z,66.50
2018-09-22T02:05:04.551Z,61.50
2018-09-22T02:06:04.525Z,65.20
2018-09-22T02:07:04.507Z,70.20
2018-09-22T02:08:04.482Z,64.70
2018-09-22T02:09:04.462Z,75.80
2018-09-22T02:10:04.455Z,76.00
2018-09-22T02:11:04.420Z,76.20
2018-09-22T02:12:04.412Z,73.80
2018-09-22T02:13:04.384Z,77.50
2018-09-22T02:14:04.375Z,68.20
2018-09-22T02:15:04.331Z,78.40
2018-09-22T02:16:04.321Z,79.50
2018-09-22T02:17:04.301Z,62.70
2018-09-22T02:18:04.266Z,77.30
2018-09-22T02:19:04.264Z,74.10
2018-09-22T02:20:04.231Z,76.30
2018-09-22T02:21:04.210Z,73.10
2018-09-22T02:22:04.181Z,80.90
2018-09-22T02:23:04.168Z,73.50
2018-09-22T02:24:04.137Z,80.60
2018-09-22T02:25:04.114Z,76.30
2018-09-22T02:26:04.093Z,78.00
2018-09-22T02:27:04.069Z,72.90
2018-09-22T02:28:04.057Z,89.90
2018-09-22T02:29:04.025Z,86.80
2018-09-22T02:30:04.012Z,77.40
2018-09-22T02:31:03.991Z,87.50
2018-09-22T02:32:03.967Z,93.10
2018-09-22T02:33:03.944Z,81.70
2018-09-22T02:34:03.912Z,82.00
2018-09-22T02:35:03.908Z,79.40
2018-09-22T02:36:03.876Z,87.80
2018-09-22T02:37:03.854Z,82.30
2018-09-22T02:38:03.825Z,93.10
2018-09-22T02:39:03.805Z,80.50
2018-09-22T02:40:03.776Z,77.70
2018-09-22T02:41:03.758Z,74.90
2018-09-22T02:42:03.732Z,73.60
2018-09-22T02:43:03.732Z,86.90
2018-09-22T02:44:03.689Z,85.60
2018-09-22T02:45:03.679Z,86.80
2018-09-22T02:46:03.653Z,75.80
2018-09-22T02:47:03.622Z,88.40
2018-09-22T02:48:03.614Z,92.50
2018-09-22T02:49:03.588Z,86.10
2018-09-22T02:50:03.565Z,85.00
2018-09-22T02:51:03.547Z,89.00
2018-09-22T02:52:03.507Z,83.80
2018-09-22T02:53:03.488Z,81.20
2018-09-22T02:54:03.477Z,88.40
2018-09-22T02:55:03.456Z,76.90
2018-09-22T02:56:03.425Z,82.60
2018-09-22T02:57:03.404Z,82.10
2018-09-22T02:58:03.386Z,74.70
2018-09-22T02:59:03.368Z,83.60
2018-09-22T03:00:03.338Z,85.80
2018-09-22T03:01:03.304Z,81.00
2018-09-22T03:02:03.302Z,77.00
2018-09-22T03:03:03.275Z,77.00
2018-09-22T03:04:03.248Z,74.50
2018-09-22T03:05:03.224Z,74.40
2018-09-22T03:06:03.210Z,71.10
2018-09-22T03:07:03.177Z,69.40
2018-09-22T03:08:03.165Z,86.90
2018-09-22T03:09:03.149Z,78.60
2018-09-22T03:10:03.173Z,86.90
2018-09-22T03:11:03.100Z,80.20
2018-09-22T03:12:03.064Z,80.30
2018-09-22T03:13:03.056Z,90.50
2018-09-22T03:14:03.031Z,85.30
2018-09-22T03:15:03.003Z,83.90
2018-09-22T03:16:02.985Z,81.60
2018-09-22T03:17:02.951Z,77.50
2018-09-22T03:18:02.933Z,82.50
2018-09-22T03:19:02.912Z,84.30
2018-09-22T03:20:02.887Z,82.10
2018-09-22T03:21:02.864Z,88.50
2018-09-22T03:22:02.844Z,88.00
2018-09-22T03:23:02.833Z,86.90
2018-09-22T03:24:02.803Z,85.40
2018-09-22T03:25:02.776Z,79.10
2018-09-22T03:26:02.753Z,76.80
2018-09-22T03:27:02.733Z,74.60
2018-09-22T03:28:02.721Z,80.90
2018-09-22T03:29:02.699Z,78.70
2018-09-22T03:30:02.680Z,72.40
2018-09-22T03:31:02.655Z,71.10
2018-09-22T03:32:02.616Z,76.70
2018-09-22T03:33:02.595Z,77.10
2018-09-22T03:34:02.590Z,79.20
2018-09-22T03:35:02.562Z,78.10
2018-09-22T03:36:02.560Z,80.80
2018-09-22T03:37:02.523Z,81.70
2018-09-22T03:38:02.498Z,75.40
2018-09-22T03:39:02.462Z,80.70
2018-09-22T03:40:02.472Z,87.40
2018-09-22T03:41:02.418Z,93.30
2018-09-22T03:42:02.406Z,80.20
2018-09-22T03:43:02.390Z,88.50
2018-09-22T03:44:02.361Z,96.30
2018-09-22T03:45:02.328Z,92.20
2018-09-22T03:46:02.310Z,85.30
2018-09-22T03:47:02.298Z,88.90
2018-09-22T03:48:02.268Z,95.50
2018-09-22T03:49:02.245Z,91.40
2018-09-22T03:50:02.217Z,105.90
2018-09-22T03:51:02.203Z,102.30
2018-09-22T03:52:02.180Z,95.00
2018-09-22T03:53:02.148Z,97.30
2018-09-22T03:54:02.118Z,105.20
2018-09-22T03:55:02.103Z,102.70
2018-09-22T03:56:02.095Z,113.50
2018-09-22T03:57:02.074Z,112.30
2018-09-22T03:58:02.052Z,97.80
2018-09-22T03:59:02.023Z,103.20
2018-09-22T04:00:01.992Z,101.50
2018-09-22T04:01:01.977Z,98.90
2018-09-22T04:02:01.956Z,102.10
2018-09-22T04:03:01.919Z,113.10
2018-09-22T04:04:01.911Z,102.20
2018-09-22T04:05:01.870Z,107.50
2018-09-22T04:06:01.863Z,104.60
2018-09-22T04:07:01.831Z,113.90
2018-09-22T04:08:01.826Z,109.70
2018-09-22T04:09:01.801Z,116.20
2018-09-22T04:10:01.786Z,100.00
2018-09-22T04:11:01.751Z,112.30
2018-09-22T04:12:01.727Z,117.80
2018-09-22T04:13:01.706Z,113.00
2018-09-22T04:14:01.673Z,105.00
2018-09-22T04:15:01.663Z,111.60
2018-09-22T04:16:01.637Z,104.00
2018-09-22T04:17:01.617Z,111.80
2018-09-22T04:18:01.588Z,108.90
2018-09-22T04:19:01.575Z,107.60
2018-09-22T04:20:01.539Z,112.40
2018-09-22T04:21:01.533Z,104.60
2018-09-22T04:22:01.504Z,110.20
2018-09-22T04:23:01.472Z,109.70
2018-09-22T04:24:01.463Z,110.30
2018-09-22T04:25:01.423Z,100.80
2018-09-22T04:26:01.418Z,123.60
2018-09-22T04:27:01.393Z,108.80
2018-09-22T04:28:01.358Z,110.60
2018-09-22T04:29:01.333Z,118.70
2018-09-22T04:30:01.359Z,109.00
2018-09-22T04:31:01.292Z,110.40
2018-09-22T04:32:01.267Z,115.80
2018-09-22T04:33:01.259Z,109.80
2018-09-22T04:34:01.220Z,112.10
2018-09-22T04:35:01.204Z,121.50
2018-09-22T04:36:01.186Z,115.80
2018-09-22T04:37:01.171Z,100.90
2018-09-22T04:38:01.140Z,108.40
2018-09-22T04:39:01.118Z,85.50
2018-09-22T04:40:01.106Z,87.00
2018-09-22T04:41:01.063Z,105.20
2018-09-22T04:42:01.036Z,99.30
2018-09-22T04:43:01.025Z,97.50
2018-09-22T04:44:01.011Z,111.30
2018-09-22T04:45:00.972Z,106.00
2018-09-22T04:46:00.947Z,112.30
2018-09-22T04:47:00.937Z,116.80
2018-09-22T04:48:00.902Z,121.40
2018-09-22T04:49:00.896Z,113.70
2018-09-22T04:50:00.886Z,115.30
2018-09-22T04:51:00.843Z,119.20
2018-09-22T04:52:00.825Z,131.30
2018-09-22T04:53:00.797Z,143.30
2018-09-22T04:54:00.784Z,122.40
2018-09-22T04:55:00.749Z,125.60
2018-09-22T04:56:00.738Z,129.00
2018-09-22T04:57:00.708Z,128.00
2018-09-22T04:58:00.692Z,129.20
2018-09-22T04:59:00.665Z,132.00
2018-09-22T05:00:00.655Z,117.20
2018-09-22T05:01:00.616Z,120.70
2018-09-22T05:02:00.598Z,130.30
2018-09-22T05:03:00.563Z,121.40
2018-09-22T05:04:00.549Z,123.50
2018-09-22T05:05:00.516Z,113.60
2018-09-22T05:06:00.501Z,144.30
2018-09-22T05:07:00.470Z,118.90
2018-09-22T05:08:00.448Z,124.80
2018-09-22T05:09:00.443Z,119.70
2018-09-22T05:10:00.420Z,115.30
2018-09-22T05:11:00.384Z,130.80
2018-09-22T05:12:00.370Z,136.60
2018-09-22T05:13:00.332Z,119.20
2018-09-22T05:14:00.311Z,122.60
2018-09-22T05:15:00.303Z,108.50
2018-09-22T05:16:00.270Z,113.70
2018-09-22T05:17:00.293Z,111.70
2018-09-22T05:18:00.220Z,126.70
2018-09-22T05:19:00.199Z,121.10
2018-09-22T05:20:00.175Z,110.40
2018-09-22T05:21:00.164Z,108.20
2018-09-22T05:22:00.143Z,114.40
2018-09-22T05:23:00.117Z,116.50
2018-09-22T05:24:00.083Z,123.40
2018-09-22T05:25:00.066Z,118.10
2018-09-22T05:26:00.040Z,124.80
2018-09-22T05:27:00.027Z,121.80
2018-09-22T05:28:00.001Z,126.80
2018-09-22T05:28:59.982Z,127.60
2018-09-22T05:29:59.958Z,124.80
2018-09-22T05:30:59.944Z,135.90
2018-09-22T05:31:59.906Z,137.80
2018-09-22T05:32:59.894Z,124.70
2018-09-22T05:33:59.852Z,145.30
2018-09-22T05:34:59.838Z,139.80
2018-09-22T05:35:59.826Z,152.30
2018-09-22T05:36:59.798Z,149.80
2018-09-22T05:37:59.762Z,153.20
2018-09-22T05:38:59.756Z,154.40
2018-09-22T05:39:59.734Z,166.50
2018-09-22T05:40:59.699Z,166.50
2018-09-22T05:41:59.687Z,166.40
2018-09-22T05:42:59.652Z,167.90
2018-09-22T05:43:59.639Z,165.20
2018-09-22T05:44:59.617Z,174.40
2018-09-22T05:45:59.586Z,179.80
2018-09-22T05:46:59.578Z,171.20
2018-09-22T05:47:59.536Z,168.00
2018-09-22T05:48:59.525Z,169.70
2018-09-22T05:49:59.513Z,148.30
2018-09-22T05:50:59.480Z,171.00
2018-09-22T05:51:59.455Z,160.30
2018-09-22T05:52:59.420Z,157.10
2018-09-22T05:53:59.412Z,147.30
2018-09-22T05:54:59.388Z,160.60
2018-09-22T05:55:59.369Z,155.90
2018-09-22T05:56:59.347Z,145.90
2018-09-22T05:57:59.333Z,144.60
2018-09-22T05:58:59.299Z,144.00
2018-09-22T05:59:59.264Z,137.10
2018-09-22T06:00:59.246Z,147.00
2018-09-22T06:01:59.219Z,149.20
2018-09-22T06:02:59.211Z,148.50
2018-09-22T06:03:59.287Z,141.00
2018-09-22T06:04:59.161Z,147.20
2018-09-22T06:05:59.142Z,137.70
2018-09-22T06:06:59.112Z,145.30
2018-09-22T06:07:59.085Z,148.20
2018-09-22T06:08:59.070Z,151.10
2018-09-22T06:09:59.033Z,155.60
2018-09-22T06:10:59.023Z,153.60
2018-09-22T06:11:58.987Z,172.80
2018-09-22T06:12:58.964Z,154.60
2018-09-22T06:13:58.956Z,154.70
2018-09-22T06:14:58.930Z,168.70
2018-09-22T06:15:58.906Z,167.30
2018-09-22T06:16:58.884Z,162.00
2018-09-22T06:17:58.856Z,165.80
2018-09-22T06:18:58.838Z,165.20
2018-09-22T06:19:58.812Z,149.60
2018-09-22T06:20:58.788Z,154.20
2018-09-22T06:21:58.767Z,147.10
2018-09-22T06:22:58.776Z,164.70
2018-09-22T06:23:58.725Z,170.80
2018-09-22T06:24:58.704Z,164.70
2018-09-22T06:25:58.666Z,169.00
2018-09-22T06:26:58.651Z,169.80
2018-09-22T06:27:58.627Z,163.10
2018-09-22T06:28:58.602Z,160.30
2018-09-22T06:29:58.573Z,179.30
2018-09-22T06:30:58.552Z,162.50
2018-09-22T06:31:58.534Z,174.60
2018-09-22T06:32:58.520Z,172.80
2018-09-22T06:33:58.496Z,168.70
2018-09-22T06:34:58.466Z,163.90
2018-09-22T06:35:58.432Z,155.00
2018-09-22T06:36:58.407Z,152.10
2018-09-22T06:37:58.381Z,144.30
2018-09-22T06:38:58.379Z,155.00
2018-09-22T06:39:58.350Z,145.90
2018-09-22T06:40:58.326Z,150.80
2018-09-22T06:41:58.289Z,153.30
2018-09-22T06:42:58.283Z,153.90
2018-09-22T06:43:58.263Z,149.00
2018-09-22T06:44:58.233Z,144.90
2018-09-22T06:45:58.262Z,149.20
2018-09-22T06:46:58.191Z,152.50
2018-09-22T06:47:58.166Z,128.30
2018-09-22T06:48:58.149Z,132.20
2018-09-22T06:49:58.120Z,132.30
2018-09-22T06:50:58.095Z,138.20
2018-09-22T06:51:58.074Z,131.80
2018-09-22T06:52:58.041Z,124.40
2018-09-22T06:53:58.025Z,130.90
2018-09-22T06:54:58.081Z,129.10
2018-09-22T06:55:57.967Z,140.90
2018-09-22T06:56:57.942Z,132.10
2018-09-22T06:57:57.924Z,133.10
2018-09-22T06:58:57.922Z,136.50
2018-09-22T06:59:57.881Z,143.30
2018-09-22T07:00:57.847Z,145.80
2018-09-22T07:01:57.872Z,152.90
2018-09-22T07:02:57.822Z,141.50
2018-09-22T07:03:57.780Z,138.60
2018-09-22T07:04:57.760Z,158.90
2018-09-22T07:05:57.741Z,149.70
2018-09-22T07:06:57.713Z,158.60
2018-09-22T07:07:57.697Z,161.90
2018-09-22T07:08:57.665Z,147.70
2018-09-22T07:09:57.657Z,156.50
2018-09-22T07:10:57.635Z,144.00
2018-09-22T07:11:57.604Z,187.50
2018-09-22T07:12:57.571Z,172.60
2018-09-22T07:13:57.640Z,176.90
2018-09-22T07:14:57.531Z,176.80
2018-09-22T07:15:57.512Z,172.50
2018-09-22T07:16:57.490Z,183.20
2018-09-22T07:17:57.466Z,174.90
2018-09-22T07:18:57.441Z,188.30
2018-09-22T07:19:57.417Z,188.10
2018-09-22T07:20:57.402Z,187.20
2018-09-22T07:21:57.359Z,190.90
2018-09-22T07:22:57.353Z,192.70
2018-09-22T07:23:57.616Z,193.00
2018-09-22T07:24:57.297Z,174.40
2018-09-22T07:25:57.281Z,188.30
2018-09-22T07:26:57.248Z,196.20
2018-09-22T07:27:57.229Z,182.10
2018-09-22T07:28:57.207Z,187.50
2018-09-22T07:29:57.183Z,195.60
2018-09-22T07:30:57.157Z,198.70
2018-09-22T07:31:57.139Z,183.70
2018-09-22T07:32:57.105Z,182.20
2018-09-22T07:33:57.090Z,181.20
2018-09-22T07:34:57.065Z,189.60
2018-09-22T07:35:57.051Z,189.90
2018-09-22T07:36:57.011Z,198.00
2018-09-22T07:37:56.994Z,180.70
2018-09-22T07:38:56.970Z,188.50
2018-09-22T07:39:56.946Z,193.60
2018-09-22T07:40:56.922Z,185.50
2018-09-22T07:41:56.912Z,194.20
2018-09-22T07:42:56.885Z,170.10
2018-09-22T07:43:56.849Z,159.90
2018-09-22T07:44:56.822Z,176.80
2018-09-22T07:45:56.811Z,185.60
2018-09-22T07:46:56.781Z,180.00
2018-09-22T07:47:56.747Z,177.50
2018-09-22T07:48:56.734Z,176.50
2018-09-22T07:49:56.704Z,165.30
2018-09-22T07:50:56.680Z,165.60
2018-09-22T07:51:56.660Z,169.70
2018-09-22T07:52:56.634Z,168.40
2018-09-22T07:53:56.622Z,160.50
2018-09-22T07:54:56.599Z,162.10
2018-09-22T07:55:56.560Z,159.60
2018-09-22T07:56:56.549Z,157.50
2018-09-22T07:57:56.529Z,160.70
2018-09-22T07:58:56.487Z,158.30
2018-09-22T07:59:56.478Z,168.10
2018-09-22T08:00:56.440Z,170.40
2018-09-22T08:01:56.423Z,165.00
2018-09-22T08:02:56.409Z,158.00
2018-09-22T08:03:56.371Z,158.70
2018-09-22T08:04:56.350Z,160.00
2018-09-22T08:05:56.326Z,161.20
2018-09-22T08:06:56.311Z,155.40
2018-09-22T08:07:56.279Z,167.20
2018-09-22T08:08:56.264Z,162.90
2018-09-22T08:09:56.230Z,166.60
2018-09-22T08:10:56.220Z,158.60
2018-09-22T08:11:56.198Z,160.80
2018-09-22T08:12:56.172Z,146.30
2018-09-22T08:13:56.139Z,144.50
2018-09-22T08:14:56.127Z,139.90
2018-09-22T08:15:56.092Z,153.80
2018-09-22T08:16:56.075Z,149.10
2018-09-22T08:17:56.048Z,146.90
2018-09-22T08:18:56.018Z,150.20
2018-09-22T08:19:56.008Z,138.20
2018-09-22T08:20:55.976Z,146.40
2018-09-22T08:21:55.962Z,148.20
2018-09-22T08:22:55.922Z,165.80
2018-09-22T08:23:55.915Z,169.00
2018-09-22T08:24:55.882Z,148.90
2018-09-22T08:25:55.867Z,161.00
2018-09-22T08:26:55.844Z,172.70
2018-09-22T08:27:55.806Z,174.80
2018-09-22T08:28:55.787Z,179.00
2018-09-22T08:29:55.773Z,170.80
2018-09-22T08:30:55.735Z,157.00
2018-09-22T08:31:55.720Z,152.90
2018-09-22T08:32:55.703Z,159.00
2018-09-22T08:33:55.681Z,161.60
2018-09-22T08:34:55.642Z,167.20
2018-09-22T08:35:55.687Z,170.50
2018-09-22T08:36:55.781Z,171.00
2018-09-22T08:37:55.569Z,185.40
2018-09-22T08:38:55.548Z,169.40
2018-09-22T08:39:55.544Z,191.30
2018-09-22T08:40:55.500Z,182.50
2018-09-22T08:41:55.469Z,194.40
2018-09-22T08:42:55.453Z,186.80
2018-09-22T08:43:55.488Z,196.10
2018-09-22T08:44:55.501Z,197.10
2018-09-22T08:45:55.385Z,204.00
2018-09-22T08:46:55.368Z,195.50
2018-09-22T08:47:55.345Z,202.00
2018-09-22T08:48:55.319Z,180.40
2018-09-22T08:49:55.319Z,191.50
2018-09-22T08:50:55.275Z,180.00
2018-09-22T08:51:55.240Z,190.30
2018-09-22T08:52:55.208Z,199.20
2018-09-22T08:53:55.193Z,202.60
2018-09-22T08:54:55.174Z,190.40
2018-09-22T08:55:55.144Z,185.50
2018-09-22T08:56:55.127Z,186.10
2018-09-22T08:57:55.161Z,191.40
2018-09-22T08:58:55.072Z,182.50
2018-09-22T08:59:55.061Z,185.90
2018-09-22T09:00:55.024Z,175.60
2018-09-22T09:01:55.004Z,165.30
2018-09-22T09:02:54.973Z,169.80
2018-09-22T09:03:54.952Z,154.50
2018-09-22T09:04:54.987Z,148.00
2018-09-22T09:05:54.977Z,153.70
2018-09-22T09:06:54.904Z,147.80
2018-09-22T09:07:54.859Z,154.40
2018-09-22T09:08:54.838Z,140.60
2018-09-22T09:09:54.823Z,137.20
2018-09-22T09:10:54.791Z,135.20
2018-09-22T09:11:54.775Z,137.60
2018-09-22T09:12:54.740Z,118.90
2018-09-22T09:13:54.782Z,120.20
2018-09-22T09:14:54.710Z,111.10
2018-09-22T09:15:54.680Z,114.20
2018-09-22T09:16:54.659Z,99.70
2018-09-22T09:17:54.626Z,99.50
2018-09-22T09:18:54.600Z,92.30
2018-09-22T09:19:54.579Z,92.10
2018-09-22T09:20:54.563Z,86.90
2018-09-22T09:21:54.544Z,97.40
2018-09-22T09:22:54.506Z,87.50
2018-09-22T09:23:54.484Z,86.20
2018-09-22T09:24:54.469Z,83.90
2018-09-22T09:25:54.444Z,71.00
2018-09-22T09:26:54.411Z,74.40
2018-09-22T09:27:54.400Z,66.10
2018-09-22T09:28:54.374Z,61.40
2018-09-22T09:29:54.356Z,61.60
2018-09-22T09:30:54.327Z,59.70
2018-09-22T09:31:54.297Z,52.70
2018-09-22T09:32:54.277Z,58.60
2018-09-22T09:33:54.258Z,57.50
2018-09-22T09:34:54.234Z,56.50
2018-09-22T09:35:54.211Z,52.10
2018-09-22T09:36:54.189Z,49.00
2018-09-22T09:37:54.162Z,49.40
2018-09-22T09:38:54.151Z,49.70
2018-09-22T09:39:54.121Z,49.40
2018-09-22T09:40:54.109Z,51.00
2018-09-22T09:41:54.087Z,49.30
2018-09-22T09:42:54.055Z,44.80
2018-09-22T09:43:54.047Z,46.60
2018-09-22T09:44:54.020Z,45.60
2018-09-22T09:45:53.988Z,44.10
2018-09-22T09:46:53.979Z,41.80
2018-09-22T09:47:53.960Z,44.60
2018-09-22T09:48:53.937Z,42.70
2018-09-22T09:49:53.907Z,43.20
2018-09-22T09:50:53.889Z,45.50
2018-09-22T09:51:53.865Z,43.20
2018-09-22T09:52:53.842Z,43.00
2018-09-22T09:53:53.836Z,41.50
2018-09-22T09:54:53.912Z,42.20
2018-09-22T09:55:53.786Z,41.40
2018-09-22T09:56:53.761Z,38.70
2018-09-22T09:57:53.745Z,41.60
2018-09-22T09:58:53.733Z,40.20
2018-09-22T09:59:53.709Z,41.70
2018-09-22T10:00:53.688Z,39.60
2018-09-22T10:01:53.685Z,37.50
2018-09-22T10:02:53.656Z,39.40
2018-09-22T10:03:53.625Z,39.40
2018-09-22T10:04:53.608Z,41.00
2018-09-22T10:05:53.598Z,40.60
2018-09-22T10:06:53.570Z,40.40
2018-09-22T10:07:53.555Z,37.70
2018-09-22T10:08:53.523Z,37.70
2018-09-22T10:09:53.515Z,40.30
2018-09-22T10:10:53.488Z,41.20
2018-09-22T10:11:53.535Z,36.70
2018-09-22T10:12:53.459Z,35.50
2018-09-22T10:13:53.439Z,35.10
2018-09-22T10:14:53.433Z,40.70
2018-09-22T10:15:53.419Z,39.30
2018-09-22T10:16:53.399Z,40.90
2018-09-22T10:17:53.381Z,38.60
2018-09-22T10:18:53.351Z,41.60
2018-09-22T10:19:53.338Z,39.40
2018-09-22T10:20:53.315Z,36.90
2018-09-22T10:21:53.296Z,37.00
2018-09-22T10:22:53.275Z,43.30
2018-09-22T10:23:53.271Z,42.00
2018-09-22T10:24:53.242Z,38.40
2018-09-22T10:25:53.226Z,37.70
2018-09-22T10:26:53.218Z,39.40
2018-09-22T10:27:53.196Z,41.50
2018-09-22T10:28:53.199Z,44.80
2018-09-22T10:29:53.153Z,40.30
2018-09-22T10:30:53.140Z,37.90
2018-09-22T10:31:53.130Z,41.20
2018-09-22T10:32:53.104Z,38.70
2018-09-22T10:33:53.091Z,42.10
2018-09-22T10:34:53.094Z,38.90
2018-09-22T10:35:53.051Z,43.30
2018-09-22T10:36:53.041Z,37.20
2018-09-22T10:37:53.023Z,41.10
2018-09-22T10:38:53.006Z,42.10
2018-09-22T10:39:53.047Z,41.00
2018-09-22T10:40:52.970Z,42.00
2018-09-22T10:41:52.971Z,44.90
2018-09-22T10:42:52.937Z,45.50
2018-09-22T10:43:52.929Z,42.30
2018-09-22T10:44:52.917Z,44.00
2018-09-22T10:45:52.883Z,39.70
2018-09-22T10:46:52.875Z,39.30
2018-09-22T10:47:52.866Z,41.00
2018-09-22T10:48:52.843Z,37.70
2018-09-22T10:49:52.817Z,38.30
2018-09-22T10:50:52.804Z,40.50
2018-09-22T10:51:52.805Z,38.10
2018-09-22T10:52:52.891Z,41.90
2018-09-22T10:53:52.762Z,43.90
2018-09-22T10:54:52.741Z,42.40
2018-09-22T10:55:52.738Z,39.10
2018-09-22T10:56:52.708Z,39.80
2018-09-22T10:57:52.692Z,40.80
2018-09-22T10:58:52.691Z,41.30
2018-09-22T10:59:52.661Z,44.90
2018-09-22T11:00:52.662Z,41.30
2018-09-22T11:01:52.644Z,37.50
2018-09-22T11:02:52.630Z,43.60
2018-09-22T11:03:52.610Z,42.10
2018-09-22T11:04:52.584Z,41.60
2018-09-22T11:05:52.570Z,40.20
2018-09-22T11:06:52.565Z,41.50
2018-09-22T11:07:52.542Z,43.30
2018-09-22T11:08:52.535Z,40.90
2018-09-22T11:09:52.518Z,42.10
2018-09-22T11:10:52.505Z,44.30
2018-09-22T11:11:52.487Z,39.30
2018-09-22T11:12:52.472Z,42.00
2018-09-22T11:13:52.463Z,42.30
2018-09-22T11:14:52.433Z,38.10
2018-09-22T11:15:52.429Z,42.00
2018-09-22T11:16:52.418Z,44.50
2018-09-22T11:17:52.387Z,44.90
2018-09-22T11:18:52.376Z,42.20
2018-09-22T11:19:52.372Z,45.00
2018-09-22T11:20:52.346Z,41.40
2018-09-22T11:21:52.338Z,41.30
2018-09-22T11:22:52.318Z,41.90
2018-09-22T11:23:52.299Z,44.50
2018-09-22T11:24:52.296Z,46.60
2018-09-22T11:25:52.272Z,41.40
2018-09-22T11:26:52.313Z,43.90
2018-09-22T11:27:52.245Z,44.20
2018-09-22T11:28:52.238Z,41.40
2018-09-22T11:29:52.216Z,41.00
2018-09-22T11:30:52.204Z,40.10
2018-09-22T11:31:52.191Z,42.50
2018-09-22T11:32:52.172Z,40.80
2018-09-22T11:33:52.170Z,43.20
2018-09-22T11:34:52.136Z,42.20
2018-09-22T11:35:52.134Z,41.60
2018-09-22T11:36:52.113Z,38.30
2018-09-22T11:37:52.099Z,36.10
2018-09-22T11:38:52.085Z,38.70
2018-09-22T11:39:52.073Z,39.70
2018-09-22T11:40:52.067Z,34.30
2018-09-22T11:41:52.049Z,40.50
2018-09-22T11:42:52.035Z,38.80
2018-09-22T11:43:52.013Z,36.70
2018-09-22T11:44:52.003Z,37.80
2018-09-22T11:45:51.982Z,37.60
2018-09-22T11:46:51.969Z,36.80
2018-09-22T11:47:51.954Z,37.20
2018-09-22T11:48:51.943Z,36.40
2018-09-22T11:49:51.930Z,35.40
2018-09-22T11:50:51.921Z,36.20
2018-09-22T11:51:51.888Z,35.60
2018-09-22T11:52:51.882Z,35.00
2018-09-22T11:53:51.859Z,39.10
2018-09-22T11:54:51.861Z,36.70
2018-09-22T11:55:51.845Z,38.30
2018-09-22T11:56:51.834Z,37.20
2018-09-22T11:57:51.803Z,38.00
2018-09-22T11:58:51.796Z,37.70
2018-09-22T11:59:51.787Z,34.10
2018-09-22T12:00:51.774Z,31.70
2018-09-22T12:01:51.761Z,34.00
2018-09-22T12:02:51.729Z,30.70
2018-09-22T12:03:51.717Z,31.10
2018-09-22T12:04:51.715Z,34.00
2018-09-22T12:05:51.718Z,31.10
2018-09-22T12:06:51.688Z,33.10
2018-09-22T12:07:51.658Z,25.10
2018-09-22T12:08:51.732Z,23.70
2018-09-22T12:09:51.627Z,27.90
2018-09-22T12:10:51.613Z,31.20
2018-09-22T12:11:51.615Z,24.60
2018-09-22T12:12:51.597Z,25.20
2018-09-22T12:13:51.612Z,29.10
2018-09-22T12:14:51.553Z,26.60
2018-09-22T12:15:51.543Z,28.90
2018-09-22T12:16:51.542Z,26.20
2018-09-22T12:17:51.517Z,27.50
2018-09-22T12:18:51.510Z,29.10
2018-09-22T12:19:51.500Z,27.40
2018-09-22T12:20:51.472Z,26.10
2018-09-22T12:21:51.463Z,25.90
2018-09-22T12:22:51.449Z,30.20
2018-09-22T12:23:51.441Z,25.20
2018-09-22T12:24:51.431Z,24.20
2018-09-22T12:25:51.419Z,25.30
2018-09-22T12:26:51.403Z,26.20
2018-09-22T12:27:51.396Z,27.60
2018-09-22T12:28:51.374Z,26.90
2018-09-22T12:29:51.353Z,25.70
2018-09-22T12:30:51.338Z,25.80
2018-09-22T12:31:51.365Z,22.50
2018-09-22T12:32:51.322Z,20.90
2018-09-22T12:33:51.302Z,27.10
2018-09-22T12:34:51.298Z,23.30
2018-09-22T12:35:51.274Z,25.20
2018-09-22T12:36:51.260Z,21.60
2018-09-22T12:37:51.249Z,18.00
2018-09-22T12:38:51.245Z,17.70
2018-09-22T12:39:51.218Z,17.20
2018-09-22T12:40:51.220Z,17.40
2018-09-22T12:41:51.197Z,18.40